sensor_id;sensor_type;location;lat;lon;timestamp;P1;durP1;ratioP1;P2;durP2;ratioP2
9140;SDS011;46330;50.822;7.126;2023-03-01T00:01:18;18.52;;;9.57;;
9140;SDS011;46330;50.822;7.126;2023-03-01T00:03:47;16.23;;;8.95;;
9140;SDS011;46330;50.822;7.126;2023-03-01T00:06:16;13.05;;;8.63;;
9140;SDS011;46330;50.822;7.126;2023-03-01T00:08:45;14.32;;;8.55;;
9140;SDS011;46330;50.822;7.126;2023-03-01T00:11:15;12.75;;;7.88;;
9140;SDS011;46330;50.822;7.126;2023-03-01T00:13:44;11.55;;;7.47;;
9140;SDS011;46330;50.822;7.126;2023-03-01T00:16:15;11.77;;;7.43;;
9140;SDS011;46330;50.822;7.126;2023-03-01T00:18:44;13.27;;;7.40;;
9140;SDS011;46330;50.822;7.126;2023-03-01T00:21:12;13.60;;;7.75;;
9140;SDS011;46330;50.822;7.126;2023-03-01T00:23:41;9.95;;;6.57;;
9140;SDS011;46330;50.822;7.126;2023-03-01T00:26:12;12.88;;;7.20;;
9140;SDS011;46330;50.822;7.126;2023-03-01T00:28:41;11.68;;;7.22;;
9140;SDS011;46330;50.822;7.126;2023-03-01T00:31:10;12.00;;;6.93;;
9140;SDS011;46330;50.822;7.126;2023-03-01T00:33:40;11.20;;;6.82;;
9140;SDS011;46330;50.822;7.126;2023-03-01T00:36:09;11.05;;;7.18;;
9140;SDS011;46330;50.822;7.126;2023-03-01T00:38:38;15.93;;;7.15;;
9140;SDS011;46330;50.822;7.126;2023-03-01T00:41:10;11.07;;;7.20;;
9140;SDS011;46330;50.822;7.126;2023-03-01T00:43:39;11.73;;;6.55;;
9140;SDS011;46330;50.822;7.126;2023-03-01T00:46:09;14.48;;;7.80;;
9140;SDS011;46330;50.822;7.126;2023-03-01T00:48:38;10.65;;;6.72;;
9140;SDS011;46330;50.822;7.126;2023-03-01T00:51:06;11.95;;;7.45;;
9140;SDS011;46330;50.822;7.126;2023-03-01T00:53:36;12.98;;;7.20;;
9140;SDS011;46330;50.822;7.126;2023-03-01T00:56:05;12.10;;;7.18;;
9140;SDS011;46330;50.822;7.126;2023-03-01T00:58:35;13.38;;;7.38;;
9140;SDS011;46330;50.822;7.126;2023-03-01T01:01:07;13.63;;;7.90;;
9140;SDS011;46330;50.822;7.126;2023-03-01T01:03:44;13.63;;;7.75;;
9140;SDS011;46330;50.822;7.126;2023-03-01T01:06:16;12.93;;;8.02;;
9140;SDS011;46330;50.822;7.126;2023-03-01T01:08:46;12.10;;;7.82;;
9140;SDS011;46330;50.822;7.126;2023-03-01T01:11:15;14.10;;;7.65;;
9140;SDS011;46330;50.822;7.126;2023-03-01T01:13:46;13.60;;;7.82;;
9140;SDS011;46330;50.822;7.126;2023-03-01T01:16:15;13.73;;;7.45;;
9140;SDS011;46330;50.822;7.126;2023-03-01T01:18:44;18.63;;;8.40;;
9140;SDS011;46330;50.822;7.126;2023-03-01T01:21:14;13.93;;;8.13;;
9140;SDS011;46330;50.822;7.126;2023-03-01T01:23:44;14.98;;;7.93;;
9140;SDS011;46330;50.822;7.126;2023-03-01T01:26:14;14.98;;;8.05;;
9140;SDS011;46330;50.822;7.126;2023-03-01T01:28:45;15.73;;;8.93;;
9140;SDS011;46330;50.822;7.126;2023-03-01T01:31:14;17.60;;;9.57;;
9140;SDS011;46330;50.822;7.126;2023-03-01T01:33:42;15.95;;;8.75;;
9140;SDS011;46330;50.822;7.126;2023-03-01T01:36:10;14.93;;;8.85;;
9140;SDS011;46330;50.822;7.126;2023-03-01T01:38:39;17.13;;;9.10;;
9140;SDS011;46330;50.822;7.126;2023-03-01T01:41:09;16.75;;;8.90;;
9140;SDS011;46330;50.822;7.126;2023-03-01T01:43:39;16.23;;;9.18;;
9140;SDS011;46330;50.822;7.126;2023-03-01T01:46:13;15.80;;;9.25;;
9140;SDS011;46330;50.822;7.126;2023-03-01T01:48:48;15.88;;;9.05;;
9140;SDS011;46330;50.822;7.126;2023-03-01T01:51:21;15.23;;;9.15;;
9140;SDS011;46330;50.822;7.126;2023-03-01T01:53:56;15.40;;;9.05;;
9140;SDS011;46330;50.822;7.126;2023-03-01T01:56:27;16.00;;;9.00;;
9140;SDS011;46330;50.822;7.126;2023-03-01T01:58:57;17.92;;;8.88;;
9140;SDS011;46330;50.822;7.126;2023-03-01T02:01:27;14.93;;;9.18;;
9140;SDS011;46330;50.822;7.126;2023-03-01T02:03:55;14.38;;;8.75;;
9140;SDS011;46330;50.822;7.126;2023-03-01T02:06:26;15.60;;;8.95;;
9140;SDS011;46330;50.822;7.126;2023-03-01T02:08:57;15.98;;;8.68;;
9140;SDS011;46330;50.822;7.126;2023-03-01T02:11:27;17.20;;;9.93;;
9140;SDS011;46330;50.822;7.126;2023-03-01T02:13:57;15.05;;;8.48;;
9140;SDS011;46330;50.822;7.126;2023-03-01T02:16:25;17.35;;;8.73;;
9140;SDS011;46330;50.822;7.126;2023-03-01T02:18:57;16.08;;;9.50;;
9140;SDS011;46330;50.822;7.126;2023-03-01T02:21:30;14.45;;;8.85;;
9140;SDS011;46330;50.822;7.126;2023-03-01T02:24:08;13.68;;;8.27;;
9140;SDS011;46330;50.822;7.126;2023-03-01T02:26:48;16.38;;;9.32;;
9140;SDS011;46330;50.822;7.126;2023-03-01T02:29:21;15.70;;;9.38;;
9140;SDS011;46330;50.822;7.126;2023-03-01T02:31:49;17.05;;;9.52;;
9140;SDS011;46330;50.822;7.126;2023-03-01T02:34:21;14.80;;;8.73;;
9140;SDS011;46330;50.822;7.126;2023-03-01T02:36:53;16.35;;;8.23;;
9140;SDS011;46330;50.822;7.126;2023-03-01T02:39:25;14.20;;;9.05;;
9140;SDS011;46330;50.822;7.126;2023-03-01T02:41:58;17.25;;;8.75;;
9140;SDS011;46330;50.822;7.126;2023-03-01T02:44:28;16.80;;;8.73;;
9140;SDS011;46330;50.822;7.126;2023-03-01T02:46:56;16.50;;;8.55;;
9140;SDS011;46330;50.822;7.126;2023-03-01T02:49:29;13.40;;;8.02;;
9140;SDS011;46330;50.822;7.126;2023-03-01T02:52:05;14.20;;;8.52;;
9140;SDS011;46330;50.822;7.126;2023-03-01T02:54:44;15.38;;;8.65;;
9140;SDS011;46330;50.822;7.126;2023-03-01T02:57:16;14.13;;;7.75;;
9140;SDS011;46330;50.822;7.126;2023-03-01T02:59:47;13.07;;;8.20;;
9140;SDS011;46330;50.822;7.126;2023-03-01T03:02:20;19.05;;;8.63;;
9140;SDS011;46330;50.822;7.126;2023-03-01T03:05:07;14.73;;;8.40;;
9140;SDS011;46330;50.822;7.126;2023-03-01T03:07:38;16.65;;;8.40;;
9140;SDS011;46330;50.822;7.126;2023-03-01T03:10:08;15.77;;;8.90;;
9140;SDS011;46330;50.822;7.126;2023-03-01T03:12:38;16.65;;;8.65;;
9140;SDS011;46330;50.822;7.126;2023-03-01T03:15:09;16.45;;;8.55;;
9140;SDS011;46330;50.822;7.126;2023-03-01T03:17:39;16.83;;;9.02;;
9140;SDS011;46330;50.822;7.126;2023-03-01T03:20:12;15.15;;;8.88;;
9140;SDS011;46330;50.822;7.126;2023-03-01T03:22:45;16.08;;;8.50;;
9140;SDS011;46330;50.822;7.126;2023-03-01T03:25:14;14.48;;;8.77;;
9140;SDS011;46330;50.822;7.126;2023-03-01T03:27:43;13.85;;;8.48;;
9140;SDS011;46330;50.822;7.126;2023-03-01T03:30:15;13.55;;;8.35;;
9140;SDS011;46330;50.822;7.126;2023-03-01T03:32:46;13.80;;;8.38;;
9140;SDS011;46330;50.822;7.126;2023-03-01T03:35:19;16.38;;;8.75;;
9140;SDS011;46330;50.822;7.126;2023-03-01T03:37:48;13.50;;;8.10;;
9140;SDS011;46330;50.822;7.126;2023-03-01T03:40:33;16.40;;;8.68;;
9140;SDS011;46330;50.822;7.126;2023-03-01T03:43:03;15.80;;;8.70;;
9140;SDS011;46330;50.822;7.126;2023-03-01T03:45:34;14.40;;;8.57;;
9140;SDS011;46330;50.822;7.126;2023-03-01T03:48:03;13.77;;;8.27;;
9140;SDS011;46330;50.822;7.126;2023-03-01T03:50:32;16.27;;;8.77;;
9140;SDS011;46330;50.822;7.126;2023-03-01T03:53:01;13.75;;;8.80;;
9140;SDS011;46330;50.822;7.126;2023-03-01T03:55:30;16.25;;;8.73;;
9140;SDS011;46330;50.822;7.126;2023-03-01T03:58:00;15.48;;;9.18;;
9140;SDS011;46330;50.822;7.126;2023-03-01T04:00:35;21.25;;;10.77;;
9140;SDS011;46330;50.822;7.126;2023-03-01T04:03:04;19.92;;;9.43;;
9140;SDS011;46330;50.822;7.126;2023-03-01T04:05:32;15.27;;;8.88;;
9140;SDS011;46330;50.822;7.126;2023-03-01T04:08:00;15.02;;;8.77;;
9140;SDS011;46330;50.822;7.126;2023-03-01T04:10:28;14.75;;;8.40;;
9140;SDS011;46330;50.822;7.126;2023-03-01T04:12:58;14.85;;;8.48;;
9140;SDS011;46330;50.822;7.126;2023-03-01T04:15:26;18.60;;;8.57;;
9140;SDS011;46330;50.822;7.126;2023-03-01T04:17:56;17.45;;;10.35;;
9140;SDS011;46330;50.822;7.126;2023-03-01T04:20:26;17.45;;;8.75;;
9140;SDS011;46330;50.822;7.126;2023-03-01T04:22:57;15.18;;;8.80;;
9140;SDS011;46330;50.822;7.126;2023-03-01T04:25:34;15.60;;;8.88;;
9140;SDS011;46330;50.822;7.126;2023-03-01T04:28:02;19.42;;;9.38;;
9140;SDS011;46330;50.822;7.126;2023-03-01T04:30:31;14.65;;;8.73;;
9140;SDS011;46330;50.822;7.126;2023-03-01T04:33:04;16.98;;;8.57;;
9140;SDS011;46330;50.822;7.126;2023-03-01T04:35:32;15.98;;;8.93;;
9140;SDS011;46330;50.822;7.126;2023-03-01T04:38:02;14.02;;;7.97;;
9140;SDS011;46330;50.822;7.126;2023-03-01T04:40:31;15.43;;;8.38;;
9140;SDS011;46330;50.822;7.126;2023-03-01T04:42:59;14.63;;;8.60;;
9140;SDS011;46330;50.822;7.126;2023-03-01T04:45:28;23.25;;;11.45;;
9140;SDS011;46330;50.822;7.126;2023-03-01T04:47:56;19.40;;;10.18;;
9140;SDS011;46330;50.822;7.126;2023-03-01T04:50:26;20.50;;;9.60;;
9140;SDS011;46330;50.822;7.126;2023-03-01T04:52:54;14.02;;;8.35;;
9140;SDS011;46330;50.822;7.126;2023-03-01T04:55:25;19.50;;;9.50;;
9140;SDS011;46330;50.822;7.126;2023-03-01T04:57:54;17.33;;;10.05;;
9140;SDS011;46330;50.822;7.126;2023-03-01T05:00:22;24.45;;;12.23;;
9140;SDS011;46330;50.822;7.126;2023-03-01T05:02:52;27.50;;;12.65;;
9140;SDS011;46330;50.822;7.126;2023-03-01T05:05:23;26.98;;;12.73;;
9140;SDS011;46330;50.822;7.126;2023-03-01T05:07:54;24.35;;;12.55;;
9140;SDS011;46330;50.822;7.126;2023-03-01T05:10:24;21.55;;;12.73;;
9140;SDS011;46330;50.822;7.126;2023-03-01T05:12:52;24.38;;;12.10;;
9140;SDS011;46330;50.822;7.126;2023-03-01T05:15:20;23.23;;;11.18;;
9140;SDS011;46330;50.822;7.126;2023-03-01T05:17:52;26.65;;;12.10;;
9140;SDS011;46330;50.822;7.126;2023-03-01T05:20:20;25.60;;;11.80;;
9140;SDS011;46330;50.822;7.126;2023-03-01T05:22:50;21.98;;;11.85;;
9140;SDS011;46330;50.822;7.126;2023-03-01T05:25:20;20.75;;;11.25;;
9140;SDS011;46330;50.822;7.126;2023-03-01T05:27:48;23.60;;;12.00;;
9140;SDS011;46330;50.822;7.126;2023-03-01T05:30:17;20.55;;;10.60;;
9140;SDS011;46330;50.822;7.126;2023-03-01T05:32:46;17.25;;;9.38;;
9140;SDS011;46330;50.822;7.126;2023-03-01T05:35:16;19.98;;;10.57;;
9140;SDS011;46330;50.822;7.126;2023-03-01T05:37:46;20.25;;;9.80;;
9140;SDS011;46330;50.822;7.126;2023-03-01T05:40:15;15.32;;;9.13;;
9140;SDS011;46330;50.822;7.126;2023-03-01T05:42:47;19.58;;;9.82;;
9140;SDS011;46330;50.822;7.126;2023-03-01T05:45:16;18.33;;;9.75;;
9140;SDS011;46330;50.822;7.126;2023-03-01T05:47:45;19.35;;;9.95;;
9140;SDS011;46330;50.822;7.126;2023-03-01T05:50:15;16.23;;;9.13;;
9140;SDS011;46330;50.822;7.126;2023-03-01T05:52:46;18.05;;;9.35;;
9140;SDS011;46330;50.822;7.126;2023-03-01T05:55:15;16.02;;;8.65;;
9140;SDS011;46330;50.822;7.126;2023-03-01T05:57:44;17.88;;;9.52;;
9140;SDS011;46330;50.822;7.126;2023-03-01T06:00:15;18.13;;;9.07;;
9140;SDS011;46330;50.822;7.126;2023-03-01T06:02:45;19.05;;;9.13;;
9140;SDS011;46330;50.822;7.126;2023-03-01T06:05:13;17.33;;;9.40;;
9140;SDS011;46330;50.822;7.126;2023-03-01T06:07:42;19.05;;;9.43;;
9140;SDS011;46330;50.822;7.126;2023-03-01T06:10:11;18.48;;;9.27;;
9140;SDS011;46330;50.822;7.126;2023-03-01T06:12:40;15.63;;;9.15;;
9140;SDS011;46330;50.822;7.126;2023-03-01T06:15:10;19.02;;;10.63;;
9140;SDS011;46330;50.822;7.126;2023-03-01T06:17:41;32.10;;;14.68;;
9140;SDS011;46330;50.822;7.126;2023-03-01T06:20:11;19.77;;;10.25;;
9140;SDS011;46330;50.822;7.126;2023-03-01T06:22:41;17.77;;;9.63;;
9140;SDS011;46330;50.822;7.126;2023-03-01T06:25:10;18.23;;;9.43;;
9140;SDS011;46330;50.822;7.126;2023-03-01T06:27:39;17.85;;;9.77;;
9140;SDS011;46330;50.822;7.126;2023-03-01T06:30:08;17.50;;;9.05;;
9140;SDS011;46330;50.822;7.126;2023-03-01T06:32:38;16.98;;;9.32;;
9140;SDS011;46330;50.822;7.126;2023-03-01T06:35:09;15.45;;;9.23;;
9140;SDS011;46330;50.822;7.126;2023-03-01T06:37:39;17.15;;;9.65;;
9140;SDS011;46330;50.822;7.126;2023-03-01T06:40:08;17.40;;;9.35;;
9140;SDS011;46330;50.822;7.126;2023-03-01T06:42:38;16.25;;;9.70;;
9140;SDS011;46330;50.822;7.126;2023-03-01T06:45:08;18.92;;;9.10;;
9140;SDS011;46330;50.822;7.126;2023-03-01T06:47:37;16.55;;;10.02;;
9140;SDS011;46330;50.822;7.126;2023-03-01T06:50:05;19.58;;;10.02;;
9140;SDS011;46330;50.822;7.126;2023-03-01T06:52:35;17.63;;;9.63;;
9140;SDS011;46330;50.822;7.126;2023-03-01T06:55:03;19.52;;;9.80;;
9140;SDS011;46330;50.822;7.126;2023-03-01T06:57:32;21.83;;;10.20;;
9140;SDS011;46330;50.822;7.126;2023-03-01T07:00:01;19.25;;;11.27;;
9140;SDS011;46330;50.822;7.126;2023-03-01T07:02:28;17.50;;;10.55;;
9140;SDS011;46330;50.822;7.126;2023-03-01T07:04:56;21.98;;;11.40;;
9140;SDS011;46330;50.822;7.126;2023-03-01T07:07:24;17.10;;;9.70;;
9140;SDS011;46330;50.822;7.126;2023-03-01T07:09:53;20.55;;;10.57;;
9140;SDS011;46330;50.822;7.126;2023-03-01T07:12:21;19.52;;;11.57;;
9140;SDS011;46330;50.822;7.126;2023-03-01T07:14:49;18.33;;;11.82;;
9140;SDS011;46330;50.822;7.126;2023-03-01T07:17:17;17.20;;;11.55;;
9140;SDS011;46330;50.822;7.126;2023-03-01T07:19:45;17.98;;;12.77;;
9140;SDS011;46330;50.822;7.126;2023-03-01T07:22:13;19.45;;;13.65;;
9140;SDS011;46330;50.822;7.126;2023-03-01T07:24:41;23.00;;;14.32;;
9140;SDS011;46330;50.822;7.126;2023-03-01T07:27:10;20.73;;;14.38;;
9140;SDS011;46330;50.822;7.126;2023-03-01T07:29:38;22.33;;;14.35;;
9140;SDS011;46330;50.822;7.126;2023-03-01T07:32:06;21.20;;;14.45;;
9140;SDS011;46330;50.822;7.126;2023-03-01T07:34:35;18.48;;;14.20;;
9140;SDS011;46330;50.822;7.126;2023-03-01T07:37:03;18.83;;;12.95;;
9140;SDS011;46330;50.822;7.126;2023-03-01T07:39:31;19.02;;;13.40;;
9140;SDS011;46330;50.822;7.126;2023-03-01T07:41:58;17.70;;;12.50;;
9140;SDS011;46330;50.822;7.126;2023-03-01T07:44:28;15.80;;;10.98;;
9140;SDS011;46330;50.822;7.126;2023-03-01T07:46:55;17.13;;;10.50;;
9140;SDS011;46330;50.822;7.126;2023-03-01T07:49:24;17.05;;;10.10;;
9140;SDS011;46330;50.822;7.126;2023-03-01T07:51:53;18.40;;;10.98;;
9140;SDS011;46330;50.822;7.126;2023-03-01T07:54:22;16.85;;;10.82;;
9140;SDS011;46330;50.822;7.126;2023-03-01T07:56:50;15.48;;;9.82;;
9140;SDS011;46330;50.822;7.126;2023-03-01T07:59:18;14.43;;;9.85;;
9140;SDS011;46330;50.822;7.126;2023-03-01T08:01:47;18.70;;;10.40;;
9140;SDS011;46330;50.822;7.126;2023-03-01T08:04:15;17.05;;;10.13;;
9140;SDS011;46330;50.822;7.126;2023-03-01T08:06:43;17.52;;;10.77;;
9140;SDS011;46330;50.822;7.126;2023-03-01T08:09:11;17.77;;;10.88;;
9140;SDS011;46330;50.822;7.126;2023-03-01T08:11:39;20.02;;;11.45;;
9140;SDS011;46330;50.822;7.126;2023-03-01T08:14:07;15.25;;;10.25;;
9140;SDS011;46330;50.822;7.126;2023-03-01T08:16:35;20.83;;;11.93;;
9140;SDS011;46330;50.822;7.126;2023-03-01T08:19:05;18.45;;;10.95;;
9140;SDS011;46330;50.822;7.126;2023-03-01T08:21:34;17.15;;;11.40;;
9140;SDS011;46330;50.822;7.126;2023-03-01T08:24:02;18.45;;;10.90;;
9140;SDS011;46330;50.822;7.126;2023-03-01T08:26:30;20.23;;;11.35;;
9140;SDS011;46330;50.822;7.126;2023-03-01T08:28:59;18.75;;;10.52;;
9140;SDS011;46330;50.822;7.126;2023-03-01T08:31:29;15.88;;;10.93;;
9140;SDS011;46330;50.822;7.126;2023-03-01T08:33:59;16.98;;;11.00;;
9140;SDS011;46330;50.822;7.126;2023-03-01T08:36:30;18.90;;;11.65;;
9140;SDS011;46330;50.822;7.126;2023-03-01T08:39:00;17.42;;;11.30;;
9140;SDS011;46330;50.822;7.126;2023-03-01T08:41:28;18.33;;;11.48;;
9140;SDS011;46330;50.822;7.126;2023-03-01T08:43:56;20.65;;;10.98;;
9140;SDS011;46330;50.822;7.126;2023-03-01T08:46:26;16.45;;;11.43;;
9140;SDS011;46330;50.822;7.126;2023-03-01T08:48:54;14.90;;;10.57;;
9140;SDS011;46330;50.822;7.126;2023-03-01T08:51:23;16.77;;;11.48;;
9140;SDS011;46330;50.822;7.126;2023-03-01T08:53:53;18.17;;;11.55;;
9140;SDS011;46330;50.822;7.126;2023-03-01T08:56:21;16.98;;;12.05;;
9140;SDS011;46330;50.822;7.126;2023-03-01T08:58:49;17.48;;;11.90;;
9140;SDS011;46330;50.822;7.126;2023-03-01T09:01:18;19.38;;;11.82;;
9140;SDS011;46330;50.822;7.126;2023-03-01T09:03:46;16.33;;;10.48;;
9140;SDS011;46330;50.822;7.126;2023-03-01T09:06:14;14.80;;;10.65;;
9140;SDS011;46330;50.822;7.126;2023-03-01T09:08:43;17.33;;;10.95;;
9140;SDS011;46330;50.822;7.126;2023-03-01T09:11:15;17.08;;;11.05;;
9140;SDS011;46330;50.822;7.126;2023-03-01T09:13:45;16.58;;;11.25;;
9140;SDS011;46330;50.822;7.126;2023-03-01T09:16:14;17.65;;;11.82;;
9140;SDS011;46330;50.822;7.126;2023-03-01T09:18:44;17.60;;;11.38;;
9140;SDS011;46330;50.822;7.126;2023-03-01T09:21:13;22.25;;;11.70;;
9140;SDS011;46330;50.822;7.126;2023-03-01T09:23:50;18.20;;;11.85;;
9140;SDS011;46330;50.822;7.126;2023-03-01T09:26:20;17.42;;;11.48;;
9140;SDS011;46330;50.822;7.126;2023-03-01T09:28:50;18.77;;;11.38;;
9140;SDS011;46330;50.822;7.126;2023-03-01T09:31:20;17.73;;;11.10;;
9140;SDS011;46330;50.822;7.126;2023-03-01T09:33:50;16.20;;;11.13;;
9140;SDS011;46330;50.822;7.126;2023-03-01T09:36:20;22.23;;;11.02;;
9140;SDS011;46330;50.822;7.126;2023-03-01T09:38:49;17.17;;;10.50;;
9140;SDS011;46330;50.822;7.126;2023-03-01T09:41:38;18.20;;;11.18;;
9140;SDS011;46330;50.822;7.126;2023-03-01T09:44:16;18.25;;;10.30;;
9140;SDS011;46330;50.822;7.126;2023-03-01T09:46:50;16.60;;;10.80;;
9140;SDS011;46330;50.822;7.126;2023-03-01T09:49:19;16.92;;;10.50;;
9140;SDS011;46330;50.822;7.126;2023-03-01T09:51:54;16.38;;;10.63;;
9140;SDS011;46330;50.822;7.126;2023-03-01T09:54:24;15.77;;;10.38;;
9140;SDS011;46330;50.822;7.126;2023-03-01T09:57:10;15.00;;;9.40;;
9140;SDS011;46330;50.822;7.126;2023-03-01T09:59:48;12.50;;;8.68;;
9140;SDS011;46330;50.822;7.126;2023-03-01T10:02:32;14.38;;;8.60;;
9140;SDS011;46330;50.822;7.126;2023-03-01T10:05:11;14.93;;;8.82;;
9140;SDS011;46330;50.822;7.126;2023-03-01T10:07:47;15.30;;;8.65;;
9140;SDS011;46330;50.822;7.126;2023-03-01T10:13:13;12.23;;;8.15;;
9140;SDS011;46330;50.822;7.126;2023-03-01T10:15:50;12.60;;;7.65;;
9140;SDS011;46330;50.822;7.126;2023-03-01T10:18:22;12.43;;;8.57;;
9140;SDS011;46330;50.822;7.126;2023-03-01T10:20:54;11.65;;;7.88;;
9140;SDS011;46330;50.822;7.126;2023-03-01T10:23:26;10.98;;;7.20;;
9140;SDS011;46330;50.822;7.126;2023-03-01T10:26:04;11.43;;;7.63;;
9140;SDS011;46330;50.822;7.126;2023-03-01T10:28:43;12.07;;;8.23;;
9140;SDS011;46330;50.822;7.126;2023-03-01T10:31:20;13.95;;;8.90;;
9140;SDS011;46330;50.822;7.126;2023-03-01T10:33:55;11.75;;;8.10;;
9140;SDS011;46330;50.822;7.126;2023-03-01T10:36:25;11.80;;;8.13;;
9140;SDS011;46330;50.822;7.126;2023-03-01T10:38:54;11.80;;;7.80;;
9140;SDS011;46330;50.822;7.126;2023-03-01T10:41:24;11.70;;;8.02;;
9140;SDS011;46330;50.822;7.126;2023-03-01T10:43:55;13.18;;;7.88;;
9140;SDS011;46330;50.822;7.126;2023-03-01T10:46:25;10.93;;;7.97;;
9140;SDS011;46330;50.822;7.126;2023-03-01T10:49:07;13.63;;;8.15;;
9140;SDS011;46330;50.822;7.126;2023-03-01T10:51:41;11.27;;;7.68;;
9140;SDS011;46330;50.822;7.126;2023-03-01T10:54:18;11.13;;;7.22;;
9140;SDS011;46330;50.822;7.126;2023-03-01T10:56:49;12.63;;;8.13;;
9140;SDS011;46330;50.822;7.126;2023-03-01T10:59:24;14.00;;;8.25;;
9140;SDS011;46330;50.822;7.126;2023-03-01T11:02:02;14.40;;;7.63;;
9140;SDS011;46330;50.822;7.126;2023-03-01T11:04:56;11.88;;;7.53;;
9140;SDS011;46330;50.822;7.126;2023-03-01T11:07:28;11.02;;;7.38;;
9140;SDS011;46330;50.822;7.126;2023-03-01T11:09:56;12.13;;;7.57;;
9140;SDS011;46330;50.822;7.126;2023-03-01T11:12:24;11.40;;;7.43;;
9140;SDS011;46330;50.822;7.126;2023-03-01T11:14:57;12.68;;;7.82;;
9140;SDS011;46330;50.822;7.126;2023-03-01T11:17:27;12.68;;;7.68;;
9140;SDS011;46330;50.822;7.126;2023-03-01T11:20:06;12.15;;;7.80;;
9140;SDS011;46330;50.822;7.126;2023-03-01T11:22:45;11.50;;;8.10;;
9140;SDS011;46330;50.822;7.126;2023-03-01T11:25:16;11.75;;;7.95;;
9140;SDS011;46330;50.822;7.126;2023-03-01T11:27:47;15.40;;;8.57;;
9140;SDS011;46330;50.822;7.126;2023-03-01T11:30:18;11.70;;;7.95;;
9140;SDS011;46330;50.822;7.126;2023-03-01T11:32:53;11.48;;;7.75;;
9140;SDS011;46330;50.822;7.126;2023-03-01T11:35:28;11.90;;;7.82;;
9140;SDS011;46330;50.822;7.126;2023-03-01T11:38:02;12.98;;;7.82;;
9140;SDS011;46330;50.822;7.126;2023-03-01T11:40:40;12.07;;;7.78;;
9140;SDS011;46330;50.822;7.126;2023-03-01T11:43:15;15.63;;;8.10;;
9140;SDS011;46330;50.822;7.126;2023-03-01T11:45:58;12.80;;;7.93;;
9140;SDS011;46330;50.822;7.126;2023-03-01T11:48:51;11.45;;;7.15;;
9140;SDS011;46330;50.822;7.126;2023-03-01T11:51:31;11.90;;;6.88;;
9140;SDS011;46330;50.822;7.126;2023-03-01T11:54:13;12.93;;;7.18;;
9140;SDS011;46330;50.822;7.126;2023-03-01T11:56:54;11.82;;;7.43;;
9140;SDS011;46330;50.822;7.126;2023-03-01T11:59:29;10.45;;;7.22;;
9140;SDS011;46330;50.822;7.126;2023-03-01T12:02:43;10.63;;;7.22;;
9140;SDS011;46330;50.822;7.126;2023-03-01T12:05:41;11.02;;;6.20;;
9140;SDS011;46330;50.822;7.126;2023-03-01T12:08:31;12.05;;;7.90;;
9140;SDS011;46330;50.822;7.126;2023-03-01T12:11:06;11.73;;;7.10;;
9140;SDS011;46330;50.822;7.126;2023-03-01T12:13:54;10.85;;;6.93;;
9140;SDS011;46330;50.822;7.126;2023-03-01T12:16:44;10.20;;;6.85;;
9140;SDS011;46330;50.822;7.126;2023-03-01T12:19:39;12.25;;;7.47;;
9140;SDS011;46330;50.822;7.126;2023-03-01T12:22:23;10.73;;;6.72;;
9140;SDS011;46330;50.822;7.126;2023-03-01T12:27:50;10.02;;;6.55;;
9140;SDS011;46330;50.822;7.126;2023-03-01T12:30:33;13.00;;;6.80;;
9140;SDS011;46330;50.822;7.126;2023-03-01T12:33:12;11.95;;;6.75;;
9140;SDS011;46330;50.822;7.126;2023-03-01T12:35:57;9.25;;;6.20;;
9140;SDS011;46330;50.822;7.126;2023-03-01T12:38:39;13.02;;;7.20;;
9140;SDS011;46330;50.822;7.126;2023-03-01T12:41:20;8.80;;;6.13;;
9140;SDS011;46330;50.822;7.126;2023-03-01T12:44:10;9.73;;;6.78;;
9140;SDS011;46330;50.822;7.126;2023-03-01T12:46:47;9.93;;;7.20;;
9140;SDS011;46330;50.822;7.126;2023-03-01T12:49:28;10.65;;;6.78;;
9140;SDS011;46330;50.822;7.126;2023-03-01T12:52:03;11.02;;;6.80;;
9140;SDS011;46330;50.822;7.126;2023-03-01T12:54:41;10.95;;;6.97;;
9140;SDS011;46330;50.822;7.126;2023-03-01T12:57:12;8.70;;;6.47;;
9140;SDS011;46330;50.822;7.126;2023-03-01T12:59:47;9.98;;;6.20;;
9140;SDS011;46330;50.822;7.126;2023-03-01T13:02:26;12.05;;;6.78;;
9140;SDS011;46330;50.822;7.126;2023-03-01T13:05:05;12.80;;;6.60;;
9140;SDS011;46330;50.822;7.126;2023-03-01T13:07:50;11.18;;;6.68;;
9140;SDS011;46330;50.822;7.126;2023-03-01T13:10:26;11.07;;;6.78;;
9140;SDS011;46330;50.822;7.126;2023-03-01T13:13:02;12.27;;;6.32;;
9140;SDS011;46330;50.822;7.126;2023-03-01T13:15:40;10.43;;;6.70;;
9140;SDS011;46330;50.822;7.126;2023-03-01T13:18:27;12.15;;;6.75;;
9140;SDS011;46330;50.822;7.126;2023-03-01T13:21:00;14.38;;;8.48;;
9140;SDS011;46330;50.822;7.126;2023-03-01T13:23:32;9.77;;;6.78;;
9140;SDS011;46330;50.822;7.126;2023-03-01T13:26:10;10.75;;;6.32;;
9140;SDS011;46330;50.822;7.126;2023-03-01T13:28:46;9.80;;;5.15;;
9140;SDS011;46330;50.822;7.126;2023-03-01T13:37:19;10.07;;;5.93;;
9140;SDS011;46330;50.822;7.126;2023-03-01T13:40:00;9.27;;;5.60;;
9140;SDS011;46330;50.822;7.126;2023-03-01T13:42:36;10.07;;;5.85;;
9140;SDS011;46330;50.822;7.126;2023-03-01T13:45:22;8.82;;;5.95;;
9140;SDS011;46330;50.822;7.126;2023-03-01T13:48:01;11.40;;;6.75;;
9140;SDS011;46330;50.822;7.126;2023-03-01T13:53:09;8.88;;;5.53;;
9140;SDS011;46330;50.822;7.126;2023-03-01T13:55:44;10.23;;;6.18;;
9140;SDS011;46330;50.822;7.126;2023-03-01T13:58:15;9.90;;;5.20;;
9140;SDS011;46330;50.822;7.126;2023-03-01T14:00:54;7.60;;;5.13;;
9140;SDS011;46330;50.822;7.126;2023-03-01T14:03:23;8.68;;;5.32;;
9140;SDS011;46330;50.822;7.126;2023-03-01T14:06:02;9.13;;;5.43;;
9140;SDS011;46330;50.822;7.126;2023-03-01T14:08:41;8.02;;;5.07;;
9140;SDS011;46330;50.822;7.126;2023-03-01T14:11:32;8.60;;;4.88;;
9140;SDS011;46330;50.822;7.126;2023-03-01T14:17:28;9.07;;;5.82;;
9140;SDS011;46330;50.822;7.126;2023-03-01T14:20:14;10.00;;;5.90;;
9140;SDS011;46330;50.822;7.126;2023-03-01T14:22:46;10.23;;;5.68;;
9140;SDS011;46330;50.822;7.126;2023-03-01T14:25:19;9.93;;;5.22;;
9140;SDS011;46330;50.822;7.126;2023-03-01T14:27:54;8.93;;;5.37;;
9140;SDS011;46330;50.822;7.126;2023-03-01T14:30:25;8.70;;;5.10;;
9140;SDS011;46330;50.822;7.126;2023-03-01T14:32:55;9.55;;;5.75;;
9140;SDS011;46330;50.822;7.126;2023-03-01T14:35:25;9.45;;;5.90;;
9140;SDS011;46330;50.822;7.126;2023-03-01T14:37:55;8.63;;;5.78;;
9140;SDS011;46330;50.822;7.126;2023-03-01T14:40:24;8.48;;;5.53;;
9140;SDS011;46330;50.822;7.126;2023-03-01T14:42:56;10.65;;;6.15;;
9140;SDS011;46330;50.822;7.126;2023-03-01T14:45:27;10.55;;;5.93;;
9140;SDS011;46330;50.822;7.126;2023-03-01T14:47:58;12.73;;;6.88;;
9140;SDS011;46330;50.822;7.126;2023-03-01T14:50:30;9.23;;;6.15;;
9140;SDS011;46330;50.822;7.126;2023-03-01T14:53:02;12.60;;;5.88;;
9140;SDS011;46330;50.822;7.126;2023-03-01T14:55:34;8.63;;;6.00;;
9140;SDS011;46330;50.822;7.126;2023-03-01T14:58:08;10.38;;;5.88;;
9140;SDS011;46330;50.822;7.126;2023-03-01T15:00:42;9.60;;;5.63;;
9140;SDS011;46330;50.822;7.126;2023-03-01T15:03:17;10.05;;;5.82;;
9140;SDS011;46330;50.822;7.126;2023-03-01T15:08:20;10.32;;;5.55;;
9140;SDS011;46330;50.822;7.126;2023-03-01T15:10:59;10.07;;;5.78;;
9140;SDS011;46330;50.822;7.126;2023-03-01T15:13:31;9.90;;;5.35;;
9140;SDS011;46330;50.822;7.126;2023-03-01T15:16:01;10.05;;;5.70;;
9140;SDS011;46330;50.822;7.126;2023-03-01T15:18:34;8.00;;;5.70;;
9140;SDS011;46330;50.822;7.126;2023-03-01T15:21:07;9.38;;;5.43;;
9140;SDS011;46330;50.822;7.126;2023-03-01T15:23:37;9.95;;;6.03;;
9140;SDS011;46330;50.822;7.126;2023-03-01T15:26:16;9.57;;;5.88;;
9140;SDS011;46330;50.822;7.126;2023-03-01T15:28:53;9.80;;;6.00;;
9140;SDS011;46330;50.822;7.126;2023-03-01T15:31:25;10.80;;;6.10;;
9140;SDS011;46330;50.822;7.126;2023-03-01T15:34:07;10.57;;;5.93;;
9140;SDS011;46330;50.822;7.126;2023-03-01T15:36:39;17.45;;;7.25;;